Weather at Tenerife Sur Airport

Public forecast

Using degrees Celsius for public forecast. Weather courtesy of forecast.io.

Current aviation weather report (METAR) for Tenerife Sur Airport

Retrieved 2022/05/21 07:00 UTC (11 minutes ago):

GCTS 210700Z 08002KT 9999 FEW025 20/15 Q1019 NOSIG

Aviation forecast (TAF) for Tenerife Sur Airport

Retrieved 2022-05-21 03:30 UTC (4 hours ago):

TAF GCTS 210200Z 2103/2203 36004KT 9999 SCT030 TX27/2114Z TN19/2106Z BECMG 2108/2110 09020KT PROB30 TEMPO 2111/2116 09020G30KT